Hlavní strana
METAR-TAF:

METAR-TAF

Letiště :

Uljanovsk, Rusko

zeměpisná šířka: 54-21N, zeměpisná délka: 048-23E, výška: 77 m

Aktuální stav počasí

Zpráva byla vytvořena před 35 minutami, v 00:00 UTC
Jihovýchodní vítr 10 kt
Teplota 11°C
Vlhkost vzduchu 66%
Tlak 1012 hPa
Viditelnost: 8000 m

METAR: UWLW 090000Z 14005MPS 8000 NSC 11/05 Q1012 R02/CLRD60 NOSIG RMK QFE752

Čas: 03:35 (00:35 UTC)

Předpověď počasí

Zpráva byla vytvořena před 1 hodinou a 48 minutami, v 22:47 UTC
Předpověď platná od 09 v 00 UTC do 09 v 24 UTC
Východojihovýchodní vítr 6 kt
Viditelnost 10 km a více
Polojasno ve výšce 3000 ft
Změna
od 09 v 03 UTC do 09 v 04 UTC
Jižní vítr 12 kt s nárazy do 25 kt

TAF: UWLW 082247Z 0900/0924 12003MPS 9999 SCT030 TX25/0912Z TN10/0903Z BECMG 0903/0904 17006G13MPS

Stav a předpovědi počasí z více než 4 000 letišť (zprávy METAR a TAF).

Červené a žluté tečky na mapě představují dostupné meteorologické stanice.

Když kurzor umístíte na tečku, zobrazí se název stanice.

Pak kliknutím zobrazíte stav a předpověď počasí.

Chcete-li změnit mapu, kliknutím na zelené tlačítko se znaménkem +mapu přiblížíte, kliknutím na zelené tlačítko se znaménkem – mapu oddálíte a kliknutím na zelené šipky přejdete na sousední mapy.


METAR-TAF: